Picayune, MS

16:47 CDT le 31 août 2015 (GMT -0500)
Hide_A_Way Lake ~OWX | | Change Station
CLOSE
Current Station
Stations météorologiques personnelles
Location: Carriere, MS
Altitude: 100 ft
Stations météo à proximité

Alt. 100 ft 30.58 °N, 89.65 °W | Updated 18 seconds ago

Partiellement nuageux
Partiellement nuageux
97.9 ° F
Paraît 105 ° F
N
0.0
Vent Variable Vent de SE
Gusts 5.0 mph

Aujourd'hui
Haut(e) -- | Bas -- ° F
--% Risque de précip.
Hier
Haut(e) -- | Bas -- ° F
Precip. -- pouce
6:34 AM 7:23 PM
Lune gibbeuse décroissante, 93% visible
Pression 30.00 pouce
Visibilité 10.0 Miles terrestres
Nuages Ciel dégagé
indice de chaleur 105 ° F
Point de rosée 70 ° F
Humidité 41%
Précipitations 0.00 pouce
Profondeur de la couche neigeuse Non disponible.
UV 2.2 sur 12
Pollen 7.40 sur 12
Qualité de l'air Non disponible.
Flu Activity Non disponible.
METAR KASD 312053Z AUTO 00000KT 10SM CLR 33/18 A3000 RMK AO2 SLP159 T03330183 58016
Pression 30.00 pouce
Visibilité 10.0 Miles terrestres
Nuages Ciel dégagé
indice de chaleur 105 ° F
Point de rosée 70 ° F
Humidité 41%
Précipitations 0.00 pouce
Profondeur de la couche neigeuse Non disponible.
UV 2.2 sur 12
Pollen 7.40 sur 12
Qualité de l'air Non disponible.
Flu Activity Non disponible.
METAR KASD 312053Z AUTO 00000KT 10SM CLR 33/18 A3000 RMK AO2 SLP159 T03330183 58016

10-Day Weather Forecast

×

Almanac

Astronomie

Aug. 31, 2015 Lever Coucher
Temps réel
Crépuscule civil
Crépuscule nautique
Crépuscule astronomique
Lune
Durée de lumière visible
Longueur du jour
Tomorrow will be .
, % of the Moon is Illuminated

Extrêmes aujourd'hui

State Highs State Lows

Community

WunderPhotos

Upload Photos

1,851,377 Photos téléchargées !

WunderBlogs® & News

Nearby

Qualité de l'air

  Qualité de l'air Indice de la qualité de l'air Polluant
Not available.

Épaisseur de neige

Station Depth Altitude

Activité sismique

Ville Distance Mag. Time & Date
Minimum magnitude displayed is 2.5.

Températures des eaux côtières

Lieu Température

Stations

Stations météo à proximité

Emplacement de la station Température Refroidissement éolien Point de rosée Humidité Vent Precip. Alt. Mise à jour Type